Historique des mesures à Cassis (13260), France
Quotidien Résumé Octobre 19, 2017 Unités:  Métrique    US   Métrique/US
« Précédent (Jour)
Suivant (Jour) »
Quotidien Hebdomadaire Mensuel Annuel Période au choix
  Maximum: Minimum: Moyenne:
Température: TemperatureC °C 17.9 °C 19.3 °C
Point de rosée: DewpointC °C 11.2 °C 12.1 °C
Humidité: Humidity % 57 % 60 %
Vitesse du vent: 0 km/h 0 km/h 8.7 km/h
Rafales: 0 km/h - -
Vent:- - ESE
Pression: PressurehPa hPa 1009.0 hPa -
Précipitations: 0.0 mm    
Historical Graphs
 
 
Mesures pour : Octobre 19, 2017
Heure Temperature Point de rosée Pression Vent Vitesse du vent Rafales Humidité Pluie (par heure) Conditions
TemperatureC °C DewpointC °C PressurehPa hPa Calm     Humidity % HourlyPrecipMM mm SoftwareType W/m2
00:11 17.9 °C 11.9 °C 1012.4 hPa Calm     68 % 0.0 mm open2300-1.11 W/m2
01:11 18.3 °C 11.6 °C 1011.7 hPa NE 2.9 km/h 2.9 km/h 65 % 0.0 mm open2300-1.11 W/m2
02:11 18.8 °C 11.4 °C 1011.7 hPa ENE 9.8 km/h 9.8 km/h 62 % 0.0 mm open2300-1.11 W/m2
03:11 18.9 °C 11.2 °C 1011.1 hPa WNW 4.2 km/h 12.7 km/h 61 % 0.0 mm open2300-1.11 W/m2
04:11 18.9 °C 11.4 °C 1010.7 hPa Calm   6.4 km/h 62 % 0.0 mm open2300-1.11 W/m2
06:11 19.0 °C 12.2 °C 1011.4 hPa SE 19.6 km/h 30.7 km/h 65 % 0.0 mm open2300-1.11 W/m2
07:11 18.8 °C 12.3 °C 1011.1 hPa SSE 27.2 km/h 27.2 km/h 66 % 0.0 mm open2300-1.11 W/m2
08:11 18.5 °C 12.7 °C 1011.1 hPa ESE 2.3 km/h 9.8 km/h 69 % 0.0 mm open2300-1.11 W/m2
09:11 18.9 °C 13.3 °C 1011.1 hPa SE 7.6 km/h 19.6 km/h 70 % 0.0 mm open2300-1.11 W/m2
10:11 19.7 °C 13.6 °C 1011.1 hPa ENE 18.7 km/h 18.7 km/h 68 % 0.0 mm open2300-1.11 W/m2
11:11 20.6 °C 13.5 °C 1011.1 hPa SE 9.8 km/h 20.3 km/h 64 % 0.0 mm open2300-1.11 W/m2
12:11 22.3 °C 14.4 °C 1011.1 hPa SE 6.4 km/h 17.9 km/h 61 % 0.0 mm open2300-1.11 W/m2
13:11 22.8 °C 14.1 °C 1010.4 hPa SE 13.2 km/h 14.5 km/h 58 % 0.0 mm open2300-1.11 W/m2
14:11 22.9 °C 13.9 °C 1009.4 hPa SE 10.9 km/h 23.8 km/h 57 % 0.0 mm open2300-1.11 W/m2
15:11 22.9 °C 14.4 °C 1009.7 hPa ESE 14.5 km/h 14.5 km/h 59 % 0.0 mm open2300-1.11 W/m2
16:11 22.3 °C 13.6 °C 1009.4 hPa ESE 5.1 km/h 10.9 km/h 58 % 0.0 mm open2300-1.11 W/m2
17:11 21.7 °C 12.8 °C 1009.0 hPa SSW 9.8 km/h 37 km/h 57 % 0.0 mm open2300-1.11 W/m2
18:11 21.1 °C 12.5 °C 1009.0 hPa SE 12.2 km/h 12.2 km/h 58 % 0.0 mm open2300-1.11 W/m2
19:11 20.2 °C 12.4 °C 1009.4 hPa East 6.4 km/h 10.3 km/h 61 % 0.0 mm open2300-1.11 W/m2
20:11 19.9 °C 12.1 °C 1010.0 hPa ENE 6.4 km/h 19.2 km/h 61 % 0.0 mm open2300-1.11 W/m2
21:11 19.8 °C 12.1 °C 1009.7 hPa SSE 3.4 km/h 6.4 km/h 61 % 0.0 mm open2300-1.11 W/m2
22:11 19.5 °C 11.8 °C 1010.0 hPa SE 7.6 km/h 7.6 km/h 61 % 0.0 mm open2300-1.11 W/m2
23:11 19.3 °C 11.8 °C 1010.4 hPa NNE 9.3 km/h 9.3 km/h 62 % 0.0 mm open2300-1.11 W/m2
Observations météo à CASSIS
WU-History script by Weather Underground - 1 mb